createdAt,value
2023-01-29T00:00:35.628Z,-0.94
2023-01-29T00:03:02.673Z,-0.94
2023-01-29T00:05:29.687Z,-1.00
2023-01-29T00:07:57.202Z,-0.96
2023-01-29T00:10:25.671Z,-0.95
2023-01-29T00:12:52.879Z,-1.04
2023-01-29T00:15:21.007Z,-1.02
2023-01-29T00:17:47.948Z,-0.99
2023-01-29T00:20:16.011Z,-1.06
2023-01-29T00:22:43.229Z,-1.06
2023-01-29T00:25:10.235Z,-1.08
2023-01-29T00:27:37.418Z,-1.11
2023-01-29T00:30:13.366Z,-1.08
2023-01-29T00:32:40.913Z,-1.12
2023-01-29T00:35:09.172Z,-1.24
2023-01-29T00:37:36.092Z,-1.22
2023-01-29T00:40:03.708Z,-1.22
2023-01-29T00:42:49.088Z,-1.23
2023-01-29T00:45:17.123Z,-1.35
2023-01-29T00:47:45.543Z,-1.27
2023-01-29T00:50:13.428Z,-1.32
2023-01-29T00:52:41.354Z,-1.31
2023-01-29T00:55:10.955Z,-1.29
2023-01-29T00:57:39.167Z,-1.26
2023-01-29T01:00:09.512Z,-1.33
2023-01-29T01:02:55.554Z,-1.22
2023-01-29T01:05:22.769Z,-1.22
2023-01-29T01:07:52.273Z,-1.38
2023-01-29T01:10:27.742Z,-1.37
2023-01-29T01:13:02.901Z,-1.32
2023-01-29T01:15:32.537Z,-1.31
2023-01-29T01:18:01.194Z,-1.28
2023-01-29T01:20:32.653Z,-1.22
2023-01-29T01:22:59.531Z,-1.19
2023-01-29T01:25:27.813Z,-1.18
2023-01-29T01:30:26.665Z,-1.19
2023-01-29T01:32:53.556Z,-1.18
2023-01-29T01:35:20.570Z,-1.24
2023-01-29T01:37:47.580Z,-1.17
2023-01-29T01:40:20.646Z,-1.12
2023-01-29T01:42:56.121Z,-1.14
2023-01-29T01:45:32.101Z,-1.09
2023-01-29T01:48:13.199Z,-1.11
2023-01-29T01:50:48.287Z,-1.35
2023-01-29T01:53:20.673Z,-1.30
2023-01-29T01:55:52.731Z,-1.36
2023-01-29T01:58:28.083Z,-1.38
2023-01-29T02:00:55.975Z,-1.28
2023-01-29T02:03:42.717Z,-1.30
2023-01-29T02:06:29.900Z,-1.32
2023-01-29T02:09:20.886Z,-1.25
2023-01-29T02:11:47.757Z,-1.28
2023-01-29T02:14:14.839Z,-1.19
2023-01-29T02:16:42.023Z,-1.18
2023-01-29T02:19:41.407Z,-1.18
2023-01-29T02:22:25.882Z,-1.24
2023-01-29T02:25:11.135Z,-1.20
2023-01-29T02:27:39.235Z,-1.21
2023-01-29T02:30:12.885Z,-1.20
2023-01-29T02:32:54.800Z,-1.17
2023-01-29T02:35:32.099Z,-1.34
2023-01-29T02:38:13.192Z,-1.28
2023-01-29T02:40:45.368Z,-1.42
2023-01-29T02:43:44.273Z,-1.38
2023-01-29T02:46:23.232Z,-1.32
2023-01-29T02:49:03.319Z,-1.31
2023-01-29T02:51:56.113Z,-1.28
2023-01-29T02:54:41.894Z,-1.41
2023-01-29T02:57:34.916Z,-1.33
2023-01-29T03:00:35.541Z,-1.33
2023-01-29T03:03:20.606Z,-1.33
2023-01-29T03:06:24.075Z,-1.40
2023-01-29T03:09:07.326Z,-1.31
2023-01-29T03:11:48.969Z,-1.26
2023-01-29T03:14:54.472Z,-1.31
2023-01-29T03:17:27.158Z,-1.46
2023-01-29T03:19:54.491Z,-1.39
2023-01-29T03:22:23.865Z,-1.33
2023-01-29T03:25:21.007Z,-1.32
2023-01-29T03:28:12.558Z,-1.42
2023-01-29T03:31:12.895Z,-1.43
2023-01-29T03:34:16.555Z,-1.48
2023-01-29T03:36:55.901Z,-1.57
2023-01-29T03:39:30.510Z,-1.51
2023-01-29T03:42:03.173Z,-1.46
2023-01-29T03:44:59.202Z,-1.41
2023-01-29T03:47:50.097Z,-1.47
2023-01-29T03:50:49.466Z,-1.57
2023-01-29T03:53:34.959Z,-1.50
2023-01-29T03:56:08.730Z,-1.61
2023-01-29T03:58:51.694Z,-1.48
2023-01-29T04:01:29.806Z,-1.66
2023-01-29T04:04:01.891Z,-1.61
2023-01-29T04:06:33.914Z,-1.55
2023-01-29T04:09:06.965Z,-1.72
2023-01-29T04:11:41.601Z,-1.56
2023-01-29T04:14:10.872Z,-1.49
2023-01-29T04:16:50.132Z,-1.50
2023-01-29T04:19:25.263Z,-1.57
2023-01-29T04:22:03.504Z,-1.68
2023-01-29T04:24:30.947Z,-1.58
2023-01-29T04:27:26.746Z,-1.65
2023-01-29T04:30:17.640Z,-1.54
2023-01-29T04:32:48.259Z,-1.65
2023-01-29T04:35:54.008Z,-1.56
2023-01-29T04:38:23.759Z,-1.54
2023-01-29T04:41:16.833Z,-1.52
2023-01-29T04:43:59.544Z,-1.67
2023-01-29T04:46:47.811Z,-1.78
2023-01-29T04:49:50.538Z,-1.61
2023-01-29T04:52:38.713Z,-1.52
2023-01-29T04:55:08.471Z,-1.58
2023-01-29T04:57:57.540Z,-1.64
2023-01-29T05:00:35.132Z,-1.55
2023-01-29T05:03:04.152Z,-1.55
2023-01-29T05:05:31.634Z,-1.62
2023-01-29T05:08:00.186Z,-1.57
2023-01-29T05:10:27.822Z,-1.56
2023-01-29T05:13:02.998Z,-1.50
2023-01-29T05:15:39.976Z,-1.55
2023-01-29T05:18:08.984Z,-1.56
2023-01-29T05:20:39.328Z,-1.56
2023-01-29T05:23:16.780Z,-1.72
2023-01-29T05:25:44.558Z,-1.67
2023-01-29T05:28:17.823Z,-1.65
2023-01-29T05:30:49.012Z,-1.51
2023-01-29T05:33:20.673Z,-1.46
2023-01-29T05:35:48.781Z,-1.51
2023-01-29T05:38:16.596Z,-1.71
2023-01-29T05:40:44.413Z,-1.57
2023-01-29T05:43:23.423Z,-1.73
2023-01-29T05:46:00.901Z,-1.62
2023-01-29T05:48:29.165Z,-1.67
2023-01-29T05:51:03.911Z,-1.67
2023-01-29T05:53:31.506Z,-1.57
2023-01-29T05:56:01.505Z,-1.68
2023-01-29T05:58:30.101Z,-1.68
2023-01-29T06:00:56.932Z,-1.70
2023-01-29T06:03:23.863Z,-1.59
2023-01-29T06:05:50.861Z,-1.50
2023-01-29T06:08:17.742Z,-1.60
2023-01-29T06:10:44.601Z,-1.64
2023-01-29T06:13:11.496Z,-1.52
2023-01-29T06:15:40.892Z,-1.41
2023-01-29T06:18:09.538Z,-1.41
2023-01-29T06:20:37.338Z,-1.40
2023-01-29T06:23:04.162Z,-1.43
2023-01-29T06:25:31.273Z,-1.49
2023-01-29T06:27:59.538Z,-1.52
2023-01-29T06:30:26.609Z,-1.56
2023-01-29T06:32:58.912Z,-1.63
2023-01-29T06:35:26.345Z,-1.58
2023-01-29T06:37:53.294Z,-1.40
2023-01-29T06:40:20.329Z,-1.49
2023-01-29T06:42:47.210Z,-1.46
2023-01-29T06:45:14.293Z,-1.35
2023-01-29T06:47:41.197Z,-1.25
2023-01-29T06:50:08.557Z,-1.40
2023-01-29T06:52:35.480Z,-1.33
2023-01-29T06:55:02.329Z,-1.36
2023-01-29T06:57:30.218Z,-1.48
2023-01-29T06:59:57.156Z,-1.49
2023-01-29T07:02:24.183Z,-1.34
2023-01-29T07:04:51.106Z,-1.34
2023-01-29T07:07:18.575Z,-1.47
2023-01-29T07:09:45.825Z,-1.36
2023-01-29T07:12:12.728Z,-1.41
2023-01-29T07:14:39.679Z,-1.35
2023-01-29T07:17:06.957Z,-1.17
2023-01-29T07:19:33.891Z,-1.06
2023-01-29T07:22:03.293Z,-1.10
2023-01-29T07:24:30.544Z,-1.11
2023-01-29T07:26:57.661Z,-1.25
2023-01-29T07:29:24.487Z,-1.36
2023-01-29T07:31:51.541Z,-1.12
2023-01-29T07:34:18.565Z,-1.17
2023-01-29T07:36:47.791Z,-1.17
2023-01-29T07:39:15.144Z,-1.16
2023-01-29T07:41:42.182Z,-1.32
2023-01-29T07:44:15.947Z,-1.03
2023-01-29T07:46:43.233Z,-1.05
2023-01-29T07:49:10.080Z,-1.05
2023-01-29T07:51:37.136Z,-0.87
2023-01-29T07:54:04.258Z,-1.17
2023-01-29T07:56:31.127Z,-0.96
2023-01-29T07:58:58.177Z,-0.96
2023-01-29T08:01:25.228Z,-0.92
2023-01-29T08:03:52.195Z,-0.75
2023-01-29T08:06:19.757Z,-0.69
2023-01-29T08:08:46.827Z,-0.68
2023-01-29T08:11:14.051Z,-0.73
2023-01-29T08:13:48.481Z,-0.77
2023-01-29T08:16:16.656Z,-0.91
2023-01-29T08:18:47.896Z,-0.88
2023-01-29T08:21:15.342Z,-0.58
2023-01-29T08:23:42.313Z,-0.40
2023-01-29T08:26:09.395Z,-0.37
2023-01-29T08:28:36.549Z,-0.15
2023-01-29T08:31:03.591Z,-0.10
2023-01-29T08:33:39.016Z,-0.19
2023-01-29T08:36:07.093Z,-0.14
2023-01-29T08:38:34.064Z,-0.13
2023-01-29T08:41:01.128Z,-0.35
2023-01-29T08:43:28.038Z,-0.31
2023-01-29T08:45:55.011Z,-0.38
2023-01-29T08:48:21.942Z,-0.23
2023-01-29T08:50:48.811Z,-0.11
2023-01-29T08:53:15.846Z,-0.31
2023-01-29T08:55:42.841Z,-0.10
2023-01-29T08:58:11.642Z,-0.10
2023-01-29T09:00:39.430Z,-0.07
2023-01-29T09:03:08.023Z,0.07
2023-01-29T09:05:36.176Z,-0.09
2023-01-29T09:08:03.525Z,-0.18
2023-01-29T09:10:30.744Z,-0.29
2023-01-29T09:12:57.782Z,-0.21
2023-01-29T09:15:24.852Z,-0.23
2023-01-29T09:17:52.088Z,-0.34
2023-01-29T09:20:19.687Z,-0.52
2023-01-29T09:22:47.204Z,-0.38
2023-01-29T09:25:14.736Z,-0.42
2023-01-29T09:27:42.186Z,-0.59
2023-01-29T09:30:09.747Z,-0.56
2023-01-29T09:32:52.671Z,-0.45
2023-01-29T09:35:21.779Z,-0.49
2023-01-29T09:37:49.667Z,-0.49
2023-01-29T09:40:27.462Z,-0.43
2023-01-29T09:43:19.320Z,-0.29
2023-01-29T09:45:55.335Z,-0.34
2023-01-29T09:48:27.473Z,-0.55
2023-01-29T09:50:57.119Z,-0.52
2023-01-29T09:53:34.897Z,-0.31
2023-01-29T09:56:23.825Z,-0.19
2023-01-29T09:58:50.879Z,-0.14
2023-01-29T10:01:37.448Z,-0.49
2023-01-29T10:04:19.772Z,-0.40
2023-01-29T10:06:46.669Z,-0.21
2023-01-29T10:09:57.782Z,-0.38
2023-01-29T10:12:36.831Z,-0.46
2023-01-29T10:15:29.835Z,-0.35
2023-01-29T10:18:41.625Z,-0.42
2023-01-29T10:21:11.763Z,-0.22
2023-01-29T10:23:49.782Z,-0.13
2023-01-29T10:26:18.714Z,-0.07
2023-01-29T10:28:50.828Z,0.01
2023-01-29T10:31:29.408Z,-0.05
2023-01-29T10:34:03.123Z,0.03
2023-01-29T10:36:44.184Z,0.04
2023-01-29T10:39:21.924Z,-0.21
2023-01-29T10:42:05.964Z,-0.09
2023-01-29T10:44:35.898Z,0.02
2023-01-29T10:47:33.875Z,0.04
2023-01-29T10:50:13.019Z,0.03
2023-01-29T10:53:05.056Z,0.09
2023-01-29T10:55:35.156Z,0.17
2023-01-29T10:58:46.820Z,-0.04
2023-01-29T11:01:14.223Z,-0.05
2023-01-29T11:03:41.183Z,0.14
2023-01-29T11:06:28.054Z,0.21
2023-01-29T11:09:06.228Z,0.13
2023-01-29T11:11:50.938Z,-0.06
2023-01-29T11:14:20.599Z,0.27
2023-01-29T11:16:49.227Z,0.35
2023-01-29T11:19:17.275Z,0.53
2023-01-29T11:21:58.433Z,0.58
2023-01-29T11:24:26.095Z,0.53
2023-01-29T11:26:57.252Z,0.23
2023-01-29T11:29:30.139Z,0.26
2023-01-29T11:31:59.074Z,0.16
2023-01-29T11:34:31.178Z,0.18
2023-01-29T11:37:15.152Z,0.23
2023-01-29T11:39:47.365Z,0.46
2023-01-29T11:42:22.391Z,0.45
2023-01-29T11:44:50.073Z,0.28
2023-01-29T11:47:16.977Z,0.12
2023-01-29T11:49:55.448Z,0.29
2023-01-29T11:52:25.784Z,0.28
2023-01-29T11:55:03.241Z,-0.02
2023-01-29T11:57:41.273Z,0.19
2023-01-29T12:00:24.154Z,0.10
2023-01-29T12:02:59.166Z,0.16
2023-01-29T12:05:27.407Z,0.13
2023-01-29T12:08:00.467Z,0.04
2023-01-29T12:10:35.587Z,0.09
2023-01-29T12:13:06.901Z,0.21
2023-01-29T12:15:34.216Z,0.27
2023-01-29T12:18:07.421Z,0.11
2023-01-29T12:20:46.803Z,0.15
2023-01-29T12:23:31.667Z,0.11
2023-01-29T12:26:09.193Z,0.13
2023-01-29T12:28:51.179Z,0.11
2023-01-29T12:31:36.891Z,-0.05
2023-01-29T12:34:43.631Z,-0.04
2023-01-29T12:37:49.030Z,0.07
2023-01-29T13:03:27.584Z,0.37
2023-01-29T13:05:59.373Z,0.27
2023-01-29T13:08:40.001Z,0.21
2023-01-29T13:11:22.641Z,-0.13
2023-01-29T13:13:54.771Z,-0.24
2023-01-29T13:16:37.847Z,-0.28
2023-01-29T13:19:18.626Z,-0.17
2023-01-29T13:21:46.610Z,-0.23
2023-01-29T13:24:17.607Z,-0.35
2023-01-29T13:26:46.528Z,-0.27
2023-01-29T13:29:25.380Z,-0.36
2023-01-29T13:31:55.447Z,-0.32
2023-01-29T13:34:31.666Z,-0.31
2023-01-29T13:37:21.010Z,-0.40
2023-01-29T13:39:52.577Z,-0.43
2023-01-29T13:42:22.049Z,-0.41
2023-01-29T13:44:55.660Z,-0.43
2023-01-29T13:47:27.939Z,-0.57
2023-01-29T13:49:57.167Z,-0.60
2023-01-29T13:52:53.356Z,-0.53
2023-01-29T13:55:26.378Z,-0.40
2023-01-29T13:57:56.248Z,-0.34
2023-01-29T14:00:25.222Z,-0.27
2023-01-29T14:02:55.326Z,-0.34
2023-01-29T14:05:31.225Z,-0.34
2023-01-29T14:08:01.637Z,-0.38
2023-01-29T14:10:36.167Z,-0.33
2023-01-29T14:13:18.336Z,-0.38
2023-01-29T14:16:06.297Z,-0.47
2023-01-29T14:18:35.268Z,-0.63
2023-01-29T14:21:14.261Z,-0.57
2023-01-29T14:23:49.969Z,-0.76
2023-01-29T14:26:55.445Z,-0.69
2023-01-29T14:29:35.107Z,-0.60
2023-01-29T14:32:08.059Z,-0.62
2023-01-29T14:34:41.733Z,-0.57
2023-01-29T14:37:18.877Z,-0.51
2023-01-29T14:39:52.186Z,-0.46
2023-01-29T14:42:22.206Z,-0.49
2023-01-29T14:44:59.109Z,-0.52
2023-01-29T14:47:35.059Z,-0.62
2023-01-29T14:50:23.259Z,-0.66
2023-01-29T14:52:54.160Z,-0.68
2023-01-29T14:55:37.414Z,-0.64
2023-01-29T14:58:05.134Z,-0.49
2023-01-29T15:00:37.680Z,-0.55
2023-01-29T15:03:14.809Z,-0.76
2023-01-29T15:05:43.124Z,-0.73
2023-01-29T15:08:21.369Z,-0.73
2023-01-29T15:11:16.056Z,-0.62
2023-01-29T15:14:25.603Z,-0.63
2023-01-29T15:16:56.030Z,-0.44
2023-01-29T15:19:33.023Z,-0.35
2023-01-29T15:22:08.211Z,-0.49
2023-01-29T15:24:36.559Z,-0.40
2023-01-29T15:27:04.107Z,-0.46
2023-01-29T15:29:31.287Z,-0.50
2023-01-29T15:31:58.987Z,-0.52
2023-01-29T15:34:26.439Z,-0.63
2023-01-29T15:36:53.516Z,-0.58
2023-01-29T15:39:21.620Z,-0.55
2023-01-29T15:41:50.939Z,-0.69
2023-01-29T15:44:23.301Z,-0.76
2023-01-29T15:46:56.058Z,-0.73
2023-01-29T15:49:31.371Z,-0.65
2023-01-29T15:52:00.990Z,-0.56
2023-01-29T15:54:31.613Z,-0.65
2023-01-29T15:56:59.402Z,-0.59
2023-01-29T15:59:30.878Z,-0.67
2023-01-29T16:01:58.266Z,-0.59
2023-01-29T16:04:29.124Z,-0.60
2023-01-29T16:06:58.351Z,-0.67
2023-01-29T16:09:27.395Z,-0.81
2023-01-29T16:11:57.849Z,-0.92
2023-01-29T16:14:26.855Z,-0.90
2023-01-29T16:16:54.763Z,-0.91
2023-01-29T16:19:27.202Z,-0.91
2023-01-29T16:22:03.112Z,-1.00
2023-01-29T16:24:32.597Z,-1.04
2023-01-29T16:27:02.138Z,-1.00
2023-01-29T16:29:32.051Z,-1.13
2023-01-29T16:32:02.566Z,-0.94
2023-01-29T16:34:33.978Z,-1.04
2023-01-29T16:37:03.441Z,-0.88
2023-01-29T16:39:34.590Z,-0.96
2023-01-29T16:42:10.878Z,-0.98
2023-01-29T16:44:45.494Z,-0.92
2023-01-29T16:47:43.856Z,-1.00
2023-01-29T16:50:40.507Z,-0.96
2023-01-29T16:53:35.718Z,-0.99
2023-01-29T16:56:05.925Z,-1.12
2023-01-29T16:58:33.099Z,-1.16
2023-01-29T17:01:10.874Z,-1.15
2023-01-29T17:03:39.921Z,-1.08
2023-01-29T17:06:21.957Z,-1.06
2023-01-29T17:08:49.661Z,-1.02
2023-01-29T17:11:44.993Z,-0.92
2023-01-29T17:14:19.364Z,-1.04
2023-01-29T17:16:53.357Z,-0.97
2023-01-29T17:19:20.898Z,-0.95
2023-01-29T17:21:48.049Z,-0.97
2023-01-29T17:24:15.139Z,-0.98
2023-01-29T17:26:42.405Z,-0.97
2023-01-29T17:29:15.676Z,-0.95
2023-01-29T17:31:43.461Z,-0.86
2023-01-29T17:34:14.982Z,-0.94
2023-01-29T17:36:43.345Z,-0.92
2023-01-29T17:39:17.795Z,-0.82
2023-01-29T17:41:54.018Z,-0.88
2023-01-29T17:44:21.700Z,-0.83
2023-01-29T17:46:48.848Z,-0.87
2023-01-29T17:49:25.539Z,-1.02
2023-01-29T17:51:53.828Z,-0.97
2023-01-29T17:54:22.266Z,-1.05
2023-01-29T17:56:50.199Z,-1.10
2023-01-29T17:59:19.933Z,-1.04
2023-01-29T18:01:47.628Z,-0.97
2023-01-29T18:04:15.647Z,-1.04
2023-01-29T18:06:44.096Z,-0.91
2023-01-29T18:09:16.220Z,-0.91
2023-01-29T18:11:43.590Z,-0.96
2023-01-29T18:14:14.043Z,-0.88
2023-01-29T18:16:43.470Z,-0.89
2023-01-29T18:19:14.671Z,-0.88
2023-01-29T18:21:41.682Z,-0.95
2023-01-29T18:24:08.993Z,-0.98
2023-01-29T18:26:36.247Z,-0.94
2023-01-29T18:29:04.800Z,-1.01
2023-01-29T18:31:32.247Z,-1.03
2023-01-29T18:33:59.319Z,-1.02
2023-01-29T18:36:26.375Z,-0.97
2023-01-29T18:38:53.417Z,-0.94
2023-01-29T18:41:20.371Z,-0.96
2023-01-29T18:43:47.338Z,-0.78
2023-01-29T18:46:14.455Z,-0.85
2023-01-29T18:48:42.726Z,-0.94
2023-01-29T18:51:09.897Z,-1.02
2023-01-29T18:53:36.983Z,-0.92
2023-01-29T18:56:05.821Z,-0.85
2023-01-29T18:58:36.979Z,-0.97
2023-01-29T19:01:09.364Z,-0.94
2023-01-29T19:03:37.386Z,-0.78
2023-01-29T19:06:06.521Z,-0.81
2023-01-29T19:08:34.362Z,-0.73
2023-01-29T19:11:04.037Z,-0.77
2023-01-29T19:13:32.274Z,-0.98
2023-01-29T19:15:59.329Z,-0.87
2023-01-29T19:18:27.083Z,-0.83
2023-01-29T19:20:55.259Z,-0.75
2023-01-29T19:23:22.361Z,-0.80
2023-01-29T19:25:49.346Z,-0.80
2023-01-29T19:28:16.460Z,-0.69
2023-01-29T19:30:43.509Z,-0.64
2023-01-29T19:33:10.850Z,-0.67
2023-01-29T19:35:37.807Z,-0.86
2023-01-29T19:38:05.244Z,-0.83
2023-01-29T19:40:32.236Z,-0.73
2023-01-29T19:42:59.590Z,-0.80
2023-01-29T19:45:49.885Z,-0.75
2023-01-29T19:48:17.104Z,-0.73
2023-01-29T19:50:50.526Z,-0.70
2023-01-29T19:53:17.409Z,-0.83
2023-01-29T19:55:44.233Z,-0.88
2023-01-29T19:58:11.175Z,-0.73
2023-01-29T20:00:38.052Z,-0.76
2023-01-29T20:03:04.941Z,-0.83
2023-01-29T20:05:31.862Z,-0.79
2023-01-29T20:07:58.721Z,-0.71
2023-01-29T20:10:27.692Z,-0.82
2023-01-29T20:12:54.563Z,-0.79
2023-01-29T20:15:22.551Z,-1.02
2023-01-29T20:17:49.601Z,-1.00
2023-01-29T20:20:17.700Z,-1.08
2023-01-29T20:22:44.874Z,-0.95
2023-01-29T20:25:13.764Z,-0.91
2023-01-29T20:27:40.950Z,-1.01
2023-01-29T20:30:08.502Z,-0.92
2023-01-29T20:32:35.532Z,-0.93
2023-01-29T20:35:02.702Z,-1.01
2023-01-29T20:37:29.609Z,-0.98
2023-01-29T20:39:56.491Z,-1.02
2023-01-29T20:42:23.452Z,-0.95
2023-01-29T20:44:50.361Z,-1.12
2023-01-29T20:47:17.332Z,-1.10
2023-01-29T20:49:44.268Z,-1.05
2023-01-29T20:52:12.549Z,-0.94
2023-01-29T20:54:40.297Z,-0.99
2023-01-29T20:57:07.298Z,-0.98
2023-01-29T20:59:34.258Z,-1.16
2023-01-29T21:02:01.090Z,-0.98
2023-01-29T21:04:28.294Z,-0.94
2023-01-29T21:06:55.257Z,-0.99
2023-01-29T21:09:22.168Z,-1.16
2023-01-29T21:11:49.231Z,-1.05
2023-01-29T21:14:16.199Z,-0.96
2023-01-29T21:16:43.387Z,-1.05
2023-01-29T21:19:14.559Z,-1.04
2023-01-29T21:21:41.492Z,-0.92
2023-01-29T21:24:09.408Z,-1.11
2023-01-29T21:26:39.366Z,-0.98
2023-01-29T21:29:06.831Z,-1.00
2023-01-29T21:31:34.594Z,-0.90
2023-01-29T21:34:01.943Z,-0.92
2023-01-29T21:36:28.952Z,-0.96
2023-01-29T21:38:55.992Z,-1.01
2023-01-29T21:41:43.204Z,-1.14
2023-01-29T21:44:10.807Z,-1.31
2023-01-29T21:46:37.803Z,-1.14
2023-01-29T21:49:05.137Z,-1.03
2023-01-29T21:51:32.008Z,-0.93
2023-01-29T21:53:58.979Z,-0.99
2023-01-29T21:56:25.843Z,-0.92
2023-01-29T21:58:52.837Z,-0.94
2023-01-29T22:01:38.067Z,-1.03
2023-01-29T22:04:08.737Z,-1.23
2023-01-29T22:06:35.705Z,-1.07
2023-01-29T22:09:02.607Z,-1.15
2023-01-29T22:11:30.399Z,-1.33
2023-01-29T22:13:57.269Z,-1.14
2023-01-29T22:16:24.137Z,-1.05
2023-01-29T22:18:51.076Z,-1.07
2023-01-29T22:21:18.015Z,-1.13
2023-01-29T22:23:49.526Z,-1.20
2023-01-29T22:26:17.000Z,-1.04
2023-01-29T22:28:44.047Z,-0.97
2023-01-29T22:31:11.755Z,-0.88
2023-01-29T22:33:38.744Z,-0.84
2023-01-29T22:36:06.133Z,-0.87
2023-01-29T22:38:33.025Z,-0.94
2023-01-29T22:41:01.669Z,-1.15
2023-01-29T22:43:29.436Z,-1.03
2023-01-29T22:45:59.379Z,-1.10
2023-01-29T22:48:27.044Z,-1.03
2023-01-29T22:51:10.152Z,-1.08
2023-01-29T22:53:39.426Z,-1.14
2023-01-29T22:56:07.273Z,-1.20
2023-01-29T22:58:34.499Z,-1.16
2023-01-29T23:01:01.491Z,-1.15
2023-01-29T23:03:28.638Z,-1.01
2023-01-29T23:05:55.569Z,-1.06
2023-01-29T23:08:22.549Z,-1.08
2023-01-29T23:10:49.424Z,-0.96
2023-01-29T23:13:16.493Z,-0.95
2023-01-29T23:15:43.886Z,-0.89
2023-01-29T23:18:11.204Z,-0.83
2023-01-29T23:20:38.946Z,-0.91
2023-01-29T23:23:05.841Z,-0.81
2023-01-29T23:25:51.509Z,-0.72
2023-01-29T23:28:18.623Z,-0.83
2023-01-29T23:30:45.640Z,-0.87
2023-01-29T23:33:12.645Z,-1.00
2023-01-29T23:35:39.877Z,-0.94
2023-01-29T23:38:06.758Z,-0.95
2023-01-29T23:40:33.668Z,-0.89
2023-01-29T23:43:00.581Z,-0.88
2023-01-29T23:45:27.489Z,-0.93
2023-01-29T23:47:54.371Z,-0.92
2023-01-29T23:50:21.319Z,-0.97
2023-01-29T23:52:48.434Z,-0.96
2023-01-29T23:55:15.459Z,-1.02
2023-01-29T23:57:42.506Z,-1.12
